Aérodrome :
LOGIN :

S'inscrire | Disclaimer

   EN    FR    IT 

 










Légende :    VFR   VFR Marginal   IFR   IFR Intensif   IFR Très Intensif
Visi : 
Plafond : 
>= 8 km
>= 3000ft
5 à 8 km
1000 à 3000 ft
1500m à 5 km
500 à 1000 ft
800 à 1500m
200 à 500 ft
< 800m
< 200 ft
Symboles :   Orages  Brouillard  Fortes neiges  Fortes précipitations  Vent > 20 kt
SIGMETs :   Divers  Orages  Givrage  Turbulence  Onde Orograph.  Cendres Volcan.






- Altitude de l'aérodrome : 142 ft
- Code IATA : ALC


LEAL - Alicante

DERNIER METAR :
  • 060900Z 08006KT 030V120 9999 FEW012 28/20 Q1017 NOSIG

METARs EXPIRÉS :
  • 060830Z 06005KT 340V100 9999 FEW012 28/19 Q1017 NOSIG
  • 060800Z 05005KT 020V100 9999 FEW012 27/20 Q1016 NOSIG
  • 060730Z 03004KT 340V080 9999 FEW010 27/20 Q1016 NOSIG
  • 060700Z 02004KT 340V060 9999 FEW010 26/20 Q1016 NOSIG
  • 060630Z 01005KT 340V080 9999 FEW010 25/20 Q1016 NOSIG

TAF TAF LEAL
Valide du 06 à 06h jusqu'au 07 à 06h UTC


060500Z 0606/0706 03006KT 9999 FEW025 TX30/0612Z TN23/0606Z
BECMG 0607/0609 09010KT
BECMG 0619/0621 VRB03KT



MET'MAP, la Météo Aéronautique d'un coup d'oeil ! - Copyright ORBIFLY Décembre 2007 - Disclaimer

ORBIFLY MET'MAP TEAM :

Programmation & Développement : Alexandra Zaïnal
Sur une idée originale de : Baudouin d'Aumeries
Assistance à la programmation : Marc-Olivier Méhu
Soutien technique & logistique : Manuel Goepfert

Contact : metmap@orbifly.com




SOURCES & CREDITS :

   NOAA